C David Campbell Field Corsicana Municipal Airport


Codes: KCRS/CRS
Name: C David Campbell Field Corsicana Municipal Airport
City: Corsicana
Country: United States
Elevation: 449 ft.
Website:
Wikipedia:

Photos at C David Campbell Field Corsicana Municipal Airport


   Photos courtesy of SpottingLog. You can add your own sightings and photos by signing up for a free trial today.



No photos found.

Weather at C David Campbell Field Corsicana Municipal Airport


Time (UTC)DescriptionTempratureWindCloud coverageVisibilityPressureHumidity
26-Jun-2024 00:00Scattered Clouds34°C7 mph, S27%10000m1012hPa55%
26-Jun-2024 03:00Broken Clouds31°C7 mph, S53%10000m1012hPa64%
26-Jun-2024 06:00Overcast Clouds28°C13 mph, S89%10000m1011hPa74%
26-Jun-2024 09:00Scattered Clouds26°C11 mph, S50%10000m1010hPa84%
26-Jun-2024 12:00Broken Clouds25°C9 mph, SW52%10000m1011hPa91%
26-Jun-2024 15:00Clear Sky29°C13 mph, SW10%10000m1011hPa73%
26-Jun-2024 18:00Few Clouds33°C11 mph, SW19%10000m1011hPa57%
26-Jun-2024 21:00Scattered Clouds35°C9 mph, S30%10000m1009hPa49%
27-Jun-2024 00:00Few Clouds34°C9 mph, S22%10000m1007hPa57%
27-Jun-2024 03:00Clear Sky30°C9 mph, SE0%10000m1007hPa62%
27-Jun-2024 06:00Clear Sky28°C11 mph, S0%10000m1008hPa70%
27-Jun-2024 09:00Clear Sky26°C9 mph, SW0%10000m1008hPa78%
27-Jun-2024 12:00Clear Sky25°C7 mph, S0%10000m1009hPa87%
27-Jun-2024 15:00Clear Sky30°C9 mph, SW9%10000m1010hPa69%
27-Jun-2024 18:00Clear Sky34°C9 mph, S10%10000m1009hPa55%
27-Jun-2024 21:00Broken Clouds35°C9 mph, S80%10000m1007hPa49%
28-Jun-2024 00:00Scattered Clouds34°C2 mph, SE49%10000m1005hPa53%
28-Jun-2024 03:00Light Rain30°C7 mph, SE99%10000m1007hPa63%
28-Jun-2024 06:00Broken Clouds27°C11 mph, S75%10000m1007hPa70%
28-Jun-2024 09:00Clear Sky26°C11 mph, S1%10000m1007hPa80%
28-Jun-2024 12:00Clear Sky25°C11 mph, S4%10000m1008hPa88%
28-Jun-2024 15:00Clear Sky29°C16 mph, SW9%10000m1009hPa72%
28-Jun-2024 18:00Scattered Clouds32°C16 mph, S42%10000m1009hPa55%
28-Jun-2024 21:00Scattered Clouds36°C16 mph, S42%10000m1006hPa41%
29-Jun-2024 00:00Scattered Clouds32°C13 mph, S48%10000m1007hPa60%
29-Jun-2024 03:00Scattered Clouds29°C13 mph, S49%10000m1008hPa60%
29-Jun-2024 06:00Scattered Clouds28°C16 mph, S34%10000m1010hPa68%
29-Jun-2024 09:00Broken Clouds26°C13 mph, S71%10000m1011hPa82%
29-Jun-2024 12:00Broken Clouds25°C9 mph, S68%10000m1014hPa93%
29-Jun-2024 15:00Broken Clouds29°C16 mph, S84%10000m1016hPa70%
29-Jun-2024 18:00Broken Clouds34°C11 mph, S51%10000m1016hPa51%
29-Jun-2024 21:00Few Clouds36°C9 mph, S21%10000m1015hPa41%
30-Jun-2024 00:00Broken Clouds35°C2 mph, S56%10000m1014hPa50%
30-Jun-2024 03:00Broken Clouds29°C9 mph, SE61%10000m1016hPa57%
30-Jun-2024 06:00Broken Clouds29°C9 mph, S63%10000m1017hPa60%
30-Jun-2024 09:00Scattered Clouds26°C7 mph, SW26%10000m1018hPa82%
30-Jun-2024 12:00Scattered Clouds25°C7 mph, SW28%10000m1019hPa90%
30-Jun-2024 15:00Few Clouds30°C9 mph, SW17%10000m1020hPa69%
30-Jun-2024 18:00Few Clouds34°C4 mph, SW13%10000m1019hPa50%
30-Jun-2024 21:00Broken Clouds36°C4 mph, SW63%10000m1017hPa40%